JST764 YSSY-YPAD
Flight info
| Callsign | JST764 |
|---|---|
| Flight time | N/A |
| Altitude | 36000 |
| Route | KADOM H44 MAXEM Q60 KAKLU |
| Aircraft | A320/M-SDE3FGHIRWY/LB1 |
Departure
| Time | 2026-05-08 05:04 |
|---|---|
| Airport | Sydney Kingsford Smith International Airport (YSSY) |
Arrival
| Time | N/A |
|---|---|
| Airport | Adelaide International Airport (YPAD) |
| Time | Latitude | Longitude | Altitude | Speed | Heading |
|---|---|---|---|---|---|
| 2026-05-08 04:36 | -33.93514 | 151.17696 | 30 ft | 0 kts | 101° |
| 2026-05-08 04:54 | -33.93512 | 151.17681 | 30 ft | 4 kts | 94° |
| 2026-05-08 04:54 | -33.93513 | 151.17649 | 30 ft | 4 kts | 86° |
| 2026-05-08 04:55 | -33.93512 | 151.17621 | 30 ft | 2 kts | 108° |
| 2026-05-08 04:55 | -33.93501 | 151.17596 | 30 ft | 4 kts | 144° |
| 2026-05-08 04:55 | -33.93479 | 151.17584 | 30 ft | 2 kts | 167° |
| 2026-05-08 04:55 | -33.93478 | 151.17584 | 30 ft | 0 kts | 167° |
| 2026-05-08 04:57 | -33.93479 | 151.17584 | 30 ft | 1 kts | 167° |
| 2026-05-08 04:58 | -33.93493 | 151.17588 | 30 ft | 5 kts | 167° |
| 2026-05-08 04:58 | -33.93552 | 151.17603 | 30 ft | 11 kts | 169° |
| 2026-05-08 04:58 | -33.93634 | 151.17629 | 30 ft | 13 kts | 158° |
| 2026-05-08 04:58 | -33.93712 | 151.17702 | 30 ft | 15 kts | 128° |
| 2026-05-08 04:59 | -33.93772 | 151.17814 | 30 ft | 17 kts | 122° |
| 2026-05-08 04:59 | -33.93799 | 151.17949 | 30 ft | 18 kts | 74° |
| 2026-05-08 04:59 | -33.93763 | 151.18101 | 30 ft | 20 kts | 74° |
| 2026-05-08 04:59 | -33.93724 | 151.18266 | 30 ft | 22 kts | 74° |
| 2026-05-08 05:00 | -33.93682 | 151.18446 | 30 ft | 23 kts | 74° |
| 2026-05-08 05:00 | -33.93640 | 151.18622 | 30 ft | 22 kts | 74° |
| 2026-05-08 05:00 | -33.93596 | 151.18809 | 30 ft | 24 kts | 78° |
| 2026-05-08 05:00 | -33.93641 | 151.18939 | 28 ft | 13 kts | 150° |
| 2026-05-08 05:01 | -33.93659 | 151.18946 | 28 ft | 0 kts | 165° |
| 2026-05-08 05:02 | -33.93675 | 151.18951 | 27 ft | 8 kts | 165° |
| 2026-05-08 05:02 | -33.93756 | 151.18930 | 27 ft | 14 kts | 223° |
| 2026-05-08 05:02 | -33.93783 | 151.18862 | 25 ft | 0 kts | 254° |
| 2026-05-08 05:03 | -33.93786 | 151.18848 | 26 ft | 13 kts | 254° |
| 2026-05-08 05:03 | -33.93884 | 151.18433 | 30 ft | 87 kts | 254° |
| 2026-05-08 05:03 | -33.94108 | 151.17494 | 50 ft | 141 kts | 254° |
| 2026-05-08 05:04 | -33.94376 | 151.16354 | 726 ft | 142 kts | 253° |
| 2026-05-08 05:04 | -33.94640 | 151.15178 | 1463 ft | 147 kts | 252° |
| 2026-05-08 05:04 | -33.94868 | 151.13950 | 1951 ft | 159 kts | 265° |
| 2026-05-08 05:04 | -33.94469 | 151.12591 | 2204 ft | 194 kts | 302° |
| 2026-05-08 05:05 | -33.93472 | 151.11317 | 2507 ft | 221 kts | 305° |
| 2026-05-08 05:05 | -33.92777 | 151.09663 | 2879 ft | 235 kts | 282° |
| 2026-05-08 05:05 | -33.92294 | 151.07733 | 3591 ft | 245 kts | 282° |
| 2026-05-08 05:05 | -33.91776 | 151.05750 | 4405 ft | 252 kts | 282° |
| 2026-05-08 05:06 | -33.91235 | 151.03712 | 5183 ft | 261 kts | 282° |
| 2026-05-08 05:06 | -33.90670 | 151.01603 | 5937 ft | 269 kts | 282° |
| 2026-05-08 05:06 | -33.90080 | 150.99418 | 6772 ft | 274 kts | 282° |
| 2026-05-08 05:06 | -33.89489 | 150.97248 | 7630 ft | 276 kts | 282° |
| 2026-05-08 05:07 | -33.88888 | 150.95037 | 8554 ft | 277 kts | 283° |
| 2026-05-08 05:07 | -33.88288 | 150.92829 | 9464 ft | 278 kts | 283° |
| 2026-05-08 05:07 | -33.87689 | 150.90615 | 10292 ft | 280 kts | 282° |
| 2026-05-08 05:07 | -33.87071 | 150.88305 | 10588 ft | 301 kts | 283° |
| 2026-05-08 05:08 | -33.86412 | 150.85820 | 10873 ft | 319 kts | 283° |
| 2026-05-08 05:08 | -33.85723 | 150.83268 | 11452 ft | 327 kts | 283° |
| 2026-05-08 05:08 | -33.84996 | 150.80615 | 12172 ft | 331 kts | 283° |
| 2026-05-08 05:08 | -33.84266 | 150.77966 | 12928 ft | 335 kts | 282° |
| 2026-05-08 05:09 | -33.83543 | 150.75335 | 13647 ft | 337 kts | 282° |
| 2026-05-08 05:09 | -33.82807 | 150.72638 | 14258 ft | 341 kts | 281° |
| 2026-05-08 05:09 | -33.82060 | 150.69898 | 14863 ft | 345 kts | 281° |
| 2026-05-08 05:09 | -33.81308 | 150.67143 | 15495 ft | 348 kts | 282° |
| 2026-05-08 05:10 | -33.81101 | 150.66386 | 15669 ft | 348 kts | 282° |
| 2026-05-08 05:10 | -33.79646 | 150.61060 | 16819 ft | 354 kts | 282° |
| 2026-05-08 05:10 | -33.78901 | 150.58344 | 17419 ft | 359 kts | 282° |
| 2026-05-08 05:11 | -33.78122 | 150.55506 | 18060 ft | 360 kts | 282° |
| 2026-05-08 05:11 | -33.77331 | 150.52636 | 18674 ft | 363 kts | 282° |
| 2026-05-08 05:11 | -33.76539 | 150.49754 | 19249 ft | 365 kts | 282° |
| 2026-05-08 05:11 | -33.75740 | 150.46837 | 19826 ft | 368 kts | 282° |
| 2026-05-08 05:12 | -33.74939 | 150.43913 | 20394 ft | 370 kts | 282° |